sensor_id;sensor_type;location;lat;lon;timestamp;P1;durP1;ratioP1;P2;durP2;ratioP2
21802;SDS011;18591;47.080;22.214;2022-12-22T00:00:34;51.00;;;30.93;;
21802;SDS011;18591;47.080;22.214;2022-12-22T00:02:55;52.83;;;31.17;;
21802;SDS011;18591;47.080;22.214;2022-12-22T00:05:19;58.00;;;33.77;;
21802;SDS011;18591;47.080;22.214;2022-12-22T00:07:41;53.80;;;31.33;;
21802;SDS011;18591;47.080;22.214;2022-12-22T00:10:05;53.83;;;31.33;;
21802;SDS011;18591;47.080;22.214;2022-12-22T00:12:26;60.07;;;33.03;;
21802;SDS011;18591;47.080;22.214;2022-12-22T00:14:47;56.90;;;32.40;;
21802;SDS011;18591;47.080;22.214;2022-12-22T00:17:16;60.17;;;33.53;;
21802;SDS011;18591;47.080;22.214;2022-12-22T00:19:46;52.43;;;32.23;;
21802;SDS011;18591;47.080;22.214;2022-12-22T00:22:19;56.13;;;33.03;;
21802;SDS011;18591;47.080;22.214;2022-12-22T00:24:42;55.07;;;31.73;;
21802;SDS011;18591;47.080;22.214;2022-12-22T00:27:02;53.20;;;31.00;;
21802;SDS011;18591;47.080;22.214;2022-12-22T00:29:23;53.90;;;31.60;;
21802;SDS011;18591;47.080;22.214;2022-12-22T00:31:46;50.60;;;30.27;;
21802;SDS011;18591;47.080;22.214;2022-12-22T00:34:20;52.80;;;30.73;;
21802;SDS011;18591;47.080;22.214;2022-12-22T00:36:42;51.47;;;29.57;;
21802;SDS011;18591;47.080;22.214;2022-12-22T00:39:07;49.93;;;28.23;;
21802;SDS011;18591;47.080;22.214;2022-12-22T00:41:32;47.73;;;29.40;;
21802;SDS011;18591;47.080;22.214;2022-12-22T00:43:52;44.80;;;27.03;;
21802;SDS011;18591;47.080;22.214;2022-12-22T00:46:14;41.63;;;25.53;;
21802;SDS011;18591;47.080;22.214;2022-12-22T00:48:38;42.83;;;24.07;;
21802;SDS011;18591;47.080;22.214;2022-12-22T00:51:00;40.67;;;23.53;;
21802;SDS011;18591;47.080;22.214;2022-12-22T00:53:21;43.20;;;26.00;;
21802;SDS011;18591;47.080;22.214;2022-12-22T00:55:41;45.70;;;25.57;;
21802;SDS011;18591;47.080;22.214;2022-12-22T00:58:02;43.73;;;25.87;;
21802;SDS011;18591;47.080;22.214;2022-12-22T01:00:26;46.30;;;26.00;;
21802;SDS011;18591;47.080;22.214;2022-12-22T01:02:47;39.80;;;24.00;;
21802;SDS011;18591;47.080;22.214;2022-12-22T01:05:08;40.23;;;21.87;;
21802;SDS011;18591;47.080;22.214;2022-12-22T01:07:29;32.17;;;18.23;;
21802;SDS011;18591;47.080;22.214;2022-12-22T01:09:50;32.80;;;20.33;;
21802;SDS011;18591;47.080;22.214;2022-12-22T01:12:19;35.97;;;21.77;;
21802;SDS011;18591;47.080;22.214;2022-12-22T01:14:42;30.73;;;19.73;;
21802;SDS011;18591;47.080;22.214;2022-12-22T01:17:03;35.37;;;21.37;;
21802;SDS011;18591;47.080;22.214;2022-12-22T01:19:25;29.53;;;19.50;;
21802;SDS011;18591;47.080;22.214;2022-12-22T01:21:46;32.47;;;20.03;;
21802;SDS011;18591;47.080;22.214;2022-12-22T01:24:10;32.27;;;18.53;;
21802;SDS011;18591;47.080;22.214;2022-12-22T01:26:32;29.97;;;18.00;;
21802;SDS011;18591;47.080;22.214;2022-12-22T01:28:53;29.83;;;19.87;;
21802;SDS011;18591;47.080;22.214;2022-12-22T01:31:26;34.30;;;19.73;;
21802;SDS011;18591;47.080;22.214;2022-12-22T01:33:49;33.13;;;19.33;;
21802;SDS011;18591;47.080;22.214;2022-12-22T01:36:09;30.83;;;18.20;;
21802;SDS011;18591;47.080;22.214;2022-12-22T01:38:30;32.37;;;19.90;;
21802;SDS011;18591;47.080;22.214;2022-12-22T01:40:51;31.03;;;18.80;;
21802;SDS011;18591;47.080;22.214;2022-12-22T01:43:34;32.00;;;19.63;;
21802;SDS011;18591;47.080;22.214;2022-12-22T01:45:55;31.53;;;18.73;;
21802;SDS011;18591;47.080;22.214;2022-12-22T01:48:27;32.13;;;19.33;;
21802;SDS011;18591;47.080;22.214;2022-12-22T01:50:50;52.77;;;30.20;;
21802;SDS011;18591;47.080;22.214;2022-12-22T01:53:12;59.03;;;35.77;;
21802;SDS011;18591;47.080;22.214;2022-12-22T01:55:36;83.07;;;45.40;;
21802;SDS011;18591;47.080;22.214;2022-12-22T01:57:57;109.93;;;61.10;;
21802;SDS011;18591;47.080;22.214;2022-12-22T02:00:18;88.60;;;49.03;;
21802;SDS011;18591;47.080;22.214;2022-12-22T02:02:39;82.67;;;44.77;;
21802;SDS011;18591;47.080;22.214;2022-12-22T02:05:00;74.50;;;41.70;;
21802;SDS011;18591;47.080;22.214;2022-12-22T02:10:10;75.00;;;41.40;;
21802;SDS011;18591;47.080;22.214;2022-12-22T02:15:15;40.43;;;23.20;;
21802;SDS011;18591;47.080;22.214;2022-12-22T02:18:05;115.30;;;62.40;;
21802;SDS011;18591;47.080;22.214;2022-12-22T02:20:40;159.40;;;92.77;;
21802;SDS011;18591;47.080;22.214;2022-12-22T02:28:38;86.93;;;51.50;;
21802;SDS011;18591;47.080;22.214;2022-12-22T02:30:59;57.30;;;34.57;;
21802;SDS011;18591;47.080;22.214;2022-12-22T02:33:20;58.53;;;31.57;;
21802;SDS011;18591;47.080;22.214;2022-12-22T02:41:26;241.93;;;117.37;;
21802;SDS011;18591;47.080;22.214;2022-12-22T02:46:35;110.23;;;59.13;;
21802;SDS011;18591;47.080;22.214;2022-12-22T02:49:00;91.87;;;48.70;;
21802;SDS011;18591;47.080;22.214;2022-12-22T02:51:46;89.27;;;48.23;;
21802;SDS011;18591;47.080;22.214;2022-12-22T02:54:12;86.23;;;46.60;;
21802;SDS011;18591;47.080;22.214;2022-12-22T02:56:36;66.47;;;36.53;;
21802;SDS011;18591;47.080;22.214;2022-12-22T02:58:57;50.83;;;27.67;;
21802;SDS011;18591;47.080;22.214;2022-12-22T03:01:18;50.07;;;26.70;;
21802;SDS011;18591;47.080;22.214;2022-12-22T03:03:39;51.00;;;27.20;;
21802;SDS011;18591;47.080;22.214;2022-12-22T03:06:00;54.90;;;28.90;;
21802;SDS011;18591;47.080;22.214;2022-12-22T03:08:20;51.70;;;26.63;;
21802;SDS011;18591;47.080;22.214;2022-12-22T03:10:44;57.57;;;28.83;;
21802;SDS011;18591;47.080;22.214;2022-12-22T03:13:05;55.27;;;28.13;;
21802;SDS011;18591;47.080;22.214;2022-12-22T03:15:27;44.37;;;24.47;;
21802;SDS011;18591;47.080;22.214;2022-12-22T03:17:47;49.00;;;26.33;;
21802;SDS011;18591;47.080;22.214;2022-12-22T03:20:11;48.07;;;26.43;;
21802;SDS011;18591;47.080;22.214;2022-12-22T03:22:31;44.40;;;25.67;;
21802;SDS011;18591;47.080;22.214;2022-12-22T03:24:52;41.87;;;23.17;;
21802;SDS011;18591;47.080;22.214;2022-12-22T03:27:13;41.37;;;22.70;;
21802;SDS011;18591;47.080;22.214;2022-12-22T03:29:17;44.77;;;24.83;;
21802;SDS011;18591;47.080;22.214;2022-12-22T03:31:22;43.30;;;24.37;;
21802;SDS011;18591;47.080;22.214;2022-12-22T03:33:24;41.90;;;23.77;;
21802;SDS011;18591;47.080;22.214;2022-12-22T03:35:30;40.20;;;23.47;;
21802;SDS011;18591;47.080;22.214;2022-12-22T03:37:32;40.10;;;22.67;;
21802;SDS011;18591;47.080;22.214;2022-12-22T03:39:34;44.50;;;24.70;;
21802;SDS011;18591;47.080;22.214;2022-12-22T03:41:38;39.20;;;23.10;;
21802;SDS011;18591;47.080;22.214;2022-12-22T03:43:59;40.63;;;23.47;;
21802;SDS011;18591;47.080;22.214;2022-12-22T03:46:20;45.30;;;24.30;;
21802;SDS011;18591;47.080;22.214;2022-12-22T03:48:31;42.50;;;23.13;;
21802;SDS011;18591;47.080;22.214;2022-12-22T03:50:33;65.33;;;36.50;;
21802;SDS011;18591;47.080;22.214;2022-12-22T03:52:36;52.47;;;30.43;;
21802;SDS011;18591;47.080;22.214;2022-12-22T03:54:38;45.57;;;27.27;;
21802;SDS011;18591;47.080;22.214;2022-12-22T03:56:40;47.17;;;28.13;;
21802;SDS011;18591;47.080;22.214;2022-12-22T03:58:43;51.07;;;28.07;;
21802;SDS011;18591;47.080;22.214;2022-12-22T04:00:45;49.03;;;29.57;;
21802;SDS011;18591;47.080;22.214;2022-12-22T04:02:47;45.57;;;27.47;;
21802;SDS011;18591;47.080;22.214;2022-12-22T04:04:50;44.07;;;27.17;;
21802;SDS011;18591;47.080;22.214;2022-12-22T04:06:55;47.80;;;27.53;;
21802;SDS011;18591;47.080;22.214;2022-12-22T04:08:57;47.37;;;27.20;;
21802;SDS011;18591;47.080;22.214;2022-12-22T04:10:59;52.60;;;30.20;;
21802;SDS011;18591;47.080;22.214;2022-12-22T04:13:20;101.17;;;46.50;;
21802;SDS011;18591;47.080;22.214;2022-12-22T04:15:26;108.83;;;47.37;;
21802;SDS011;18591;47.080;22.214;2022-12-22T04:17:30;76.47;;;40.40;;
21802;SDS011;18591;47.080;22.214;2022-12-22T04:19:32;82.47;;;40.10;;
21802;SDS011;18591;47.080;22.214;2022-12-22T04:21:35;78.80;;;44.47;;
21802;SDS011;18591;47.080;22.214;2022-12-22T04:23:38;72.83;;;42.47;;
21802;SDS011;18591;47.080;22.214;2022-12-22T04:25:40;74.57;;;40.17;;
21802;SDS011;18591;47.080;22.214;2022-12-22T04:27:42;66.67;;;37.17;;
21802;SDS011;18591;47.080;22.214;2022-12-22T04:29:44;70.30;;;38.27;;
21802;SDS011;18591;47.080;22.214;2022-12-22T04:31:47;71.43;;;38.37;;
21802;SDS011;18591;47.080;22.214;2022-12-22T04:33:49;65.13;;;38.17;;
21802;SDS011;18591;47.080;22.214;2022-12-22T04:35:51;63.53;;;35.77;;
21802;SDS011;18591;47.080;22.214;2022-12-22T04:37:53;62.37;;;35.93;;
21802;SDS011;18591;47.080;22.214;2022-12-22T04:39:55;66.43;;;37.23;;
21802;SDS011;18591;47.080;22.214;2022-12-22T04:41:58;65.33;;;36.50;;
21802;SDS011;18591;47.080;22.214;2022-12-22T04:44:00;114.70;;;70.43;;
21802;SDS011;18591;47.080;22.214;2022-12-22T04:46:03;122.77;;;80.73;;
21802;SDS011;18591;47.080;22.214;2022-12-22T04:48:09;120.27;;;78.63;;
21802;SDS011;18591;47.080;22.214;2022-12-22T04:50:11;211.20;;;125.90;;
21802;SDS011;18591;47.080;22.214;2022-12-22T04:52:13;204.27;;;122.93;;
21802;SDS011;18591;47.080;22.214;2022-12-22T04:54:16;228.23;;;133.67;;
21802;SDS011;18591;47.080;22.214;2022-12-22T04:56:18;229.10;;;139.93;;
21802;SDS011;18591;47.080;22.214;2022-12-22T04:58:23;169.77;;;109.47;;
21802;SDS011;18591;47.080;22.214;2022-12-22T05:00:25;151.00;;;94.60;;
21802;SDS011;18591;47.080;22.214;2022-12-22T05:02:28;104.83;;;66.30;;
21802;SDS011;18591;47.080;22.214;2022-12-22T05:04:30;72.67;;;47.17;;
21802;SDS011;18591;47.080;22.214;2022-12-22T05:06:33;57.50;;;35.90;;
21802;SDS011;18591;47.080;22.214;2022-12-22T05:08:35;49.97;;;32.67;;
21802;SDS011;18591;47.080;22.214;2022-12-22T05:10:37;46.03;;;29.67;;
21802;SDS011;18591;47.080;22.214;2022-12-22T05:12:40;44.90;;;30.00;;
21802;SDS011;18591;47.080;22.214;2022-12-22T05:14:58;48.27;;;30.00;;
21802;SDS011;18591;47.080;22.214;2022-12-22T05:17:00;47.40;;;29.50;;
21802;SDS011;18591;47.080;22.214;2022-12-22T05:19:02;41.47;;;26.33;;
21802;SDS011;18591;47.080;22.214;2022-12-22T05:21:06;40.13;;;27.37;;
21802;SDS011;18591;47.080;22.214;2022-12-22T05:23:10;43.57;;;27.50;;
21802;SDS011;18591;47.080;22.214;2022-12-22T05:25:13;45.20;;;28.67;;
21802;SDS011;18591;47.080;22.214;2022-12-22T05:27:20;40.77;;;27.10;;
21802;SDS011;18591;47.080;22.214;2022-12-22T05:29:22;37.27;;;24.10;;
21802;SDS011;18591;47.080;22.214;2022-12-22T05:31:26;35.77;;;22.40;;
21802;SDS011;18591;47.080;22.214;2022-12-22T05:33:28;38.90;;;24.03;;
21802;SDS011;18591;47.080;22.214;2022-12-22T05:35:30;37.73;;;22.73;;
21802;SDS011;18591;47.080;22.214;2022-12-22T05:37:33;38.80;;;22.93;;
21802;SDS011;18591;47.080;22.214;2022-12-22T05:39:36;35.17;;;22.10;;
21802;SDS011;18591;47.080;22.214;2022-12-22T05:41:38;36.90;;;23.00;;
21802;SDS011;18591;47.080;22.214;2022-12-22T05:43:40;39.70;;;23.93;;
21802;SDS011;18591;47.080;22.214;2022-12-22T05:45:43;36.47;;;21.57;;
21802;SDS011;18591;47.080;22.214;2022-12-22T05:47:47;36.30;;;22.33;;
21802;SDS011;18591;47.080;22.214;2022-12-22T05:49:51;31.93;;;21.10;;
21802;SDS011;18591;47.080;22.214;2022-12-22T05:51:55;34.97;;;22.00;;
21802;SDS011;18591;47.080;22.214;2022-12-22T05:53:58;34.87;;;21.23;;
21802;SDS011;18591;47.080;22.214;2022-12-22T05:56:00;31.80;;;21.30;;
21802;SDS011;18591;47.080;22.214;2022-12-22T05:58:02;30.67;;;20.63;;
21802;SDS011;18591;47.080;22.214;2022-12-22T06:00:05;35.63;;;22.83;;
21802;SDS011;18591;47.080;22.214;2022-12-22T06:02:15;37.47;;;24.43;;
21802;SDS011;18591;47.080;22.214;2022-12-22T06:04:18;37.97;;;25.00;;
21802;SDS011;18591;47.080;22.214;2022-12-22T06:06:20;42.03;;;27.33;;
21802;SDS011;18591;47.080;22.214;2022-12-22T06:08:23;43.27;;;28.17;;
21802;SDS011;18591;47.080;22.214;2022-12-22T06:10:25;43.73;;;27.47;;
21802;SDS011;18591;47.080;22.214;2022-12-22T06:12:28;42.67;;;27.07;;
21802;SDS011;18591;47.080;22.214;2022-12-22T06:14:30;46.03;;;28.80;;
21802;SDS011;18591;47.080;22.214;2022-12-22T06:16:32;42.17;;;28.33;;
21802;SDS011;18591;47.080;22.214;2022-12-22T06:18:35;52.33;;;31.10;;
21802;SDS011;18591;47.080;22.214;2022-12-22T06:20:37;47.13;;;29.47;;
21802;SDS011;18591;47.080;22.214;2022-12-22T06:22:45;46.27;;;29.87;;
21802;SDS011;18591;47.080;22.214;2022-12-22T06:24:48;42.10;;;26.87;;
21802;SDS011;18591;47.080;22.214;2022-12-22T06:26:50;40.87;;;26.97;;
21802;SDS011;18591;47.080;22.214;2022-12-22T06:28:52;41.40;;;26.50;;
21802;SDS011;18591;47.080;22.214;2022-12-22T06:30:55;39.00;;;25.03;;
21802;SDS011;18591;47.080;22.214;2022-12-22T06:32:58;45.00;;;28.20;;
21802;SDS011;18591;47.080;22.214;2022-12-22T06:35:00;44.53;;;28.10;;
21802;SDS011;18591;47.080;22.214;2022-12-22T06:37:03;40.13;;;27.10;;
21802;SDS011;18591;47.080;22.214;2022-12-22T06:39:06;42.37;;;26.10;;
21802;SDS011;18591;47.080;22.214;2022-12-22T06:41:10;42.03;;;28.43;;
21802;SDS011;18591;47.080;22.214;2022-12-22T06:43:12;44.00;;;28.20;;
21802;SDS011;18591;47.080;22.214;2022-12-22T06:45:14;43.77;;;26.60;;
21802;SDS011;18591;47.080;22.214;2022-12-22T06:47:17;39.63;;;26.53;;
21802;SDS011;18591;47.080;22.214;2022-12-22T06:49:19;43.57;;;27.60;;
21802;SDS011;18591;47.080;22.214;2022-12-22T06:51:21;42.07;;;28.57;;
21802;SDS011;18591;47.080;22.214;2022-12-22T06:53:24;45.03;;;29.33;;
21802;SDS011;18591;47.080;22.214;2022-12-22T06:55:27;50.63;;;29.73;;
21802;SDS011;18591;47.080;22.214;2022-12-22T06:57:32;49.90;;;30.93;;
21802;SDS011;18591;47.080;22.214;2022-12-22T06:59:34;51.03;;;30.13;;
21802;SDS011;18591;47.080;22.214;2022-12-22T07:01:39;50.60;;;31.97;;
21802;SDS011;18591;47.080;22.214;2022-12-22T07:03:43;49.40;;;32.87;;
21802;SDS011;18591;47.080;22.214;2022-12-22T07:05:46;62.57;;;39.17;;
21802;SDS011;18591;47.080;22.214;2022-12-22T07:07:49;77.10;;;48.90;;
21802;SDS011;18591;47.080;22.214;2022-12-22T07:09:51;73.90;;;48.53;;
21802;SDS011;18591;47.080;22.214;2022-12-22T07:11:53;72.90;;;47.37;;
21802;SDS011;18591;47.080;22.214;2022-12-22T07:13:56;65.43;;;45.40;;
21802;SDS011;18591;47.080;22.214;2022-12-22T07:15:59;61.67;;;38.97;;
21802;SDS011;18591;47.080;22.214;2022-12-22T07:18:03;54.07;;;34.83;;
21802;SDS011;18591;47.080;22.214;2022-12-22T07:20:06;52.23;;;33.37;;
21802;SDS011;18591;47.080;22.214;2022-12-22T07:22:09;60.27;;;37.87;;
21802;SDS011;18591;47.080;22.214;2022-12-22T07:24:11;62.13;;;38.40;;
21802;SDS011;18591;47.080;22.214;2022-12-22T07:26:13;57.93;;;35.80;;
21802;SDS011;18591;47.080;22.214;2022-12-22T07:28:16;64.43;;;38.47;;
21802;SDS011;18591;47.080;22.214;2022-12-22T07:30:21;61.87;;;37.33;;
21802;SDS011;18591;47.080;22.214;2022-12-22T07:32:24;60.43;;;36.63;;
21802;SDS011;18591;47.080;22.214;2022-12-22T07:34:26;65.10;;;37.80;;
21802;SDS011;18591;47.080;22.214;2022-12-22T07:36:28;60.73;;;39.50;;
21802;SDS011;18591;47.080;22.214;2022-12-22T07:38:32;60.63;;;38.10;;
21802;SDS011;18591;47.080;22.214;2022-12-22T07:40:39;66.77;;;41.00;;
21802;SDS011;18591;47.080;22.214;2022-12-22T07:42:43;66.50;;;41.23;;
21802;SDS011;18591;47.080;22.214;2022-12-22T07:44:45;70.20;;;43.90;;
21802;SDS011;18591;47.080;22.214;2022-12-22T07:46:48;79.30;;;48.33;;
21802;SDS011;18591;47.080;22.214;2022-12-22T07:48:51;86.87;;;53.03;;
21802;SDS011;18591;47.080;22.214;2022-12-22T07:51:12;89.40;;;52.10;;
21802;SDS011;18591;47.080;22.214;2022-12-22T07:53:14;77.80;;;48.47;;
21802;SDS011;18591;47.080;22.214;2022-12-22T07:55:17;78.67;;;47.70;;
21802;SDS011;18591;47.080;22.214;2022-12-22T07:57:19;76.23;;;44.87;;
21802;SDS011;18591;47.080;22.214;2022-12-22T07:59:26;74.13;;;46.97;;
21802;SDS011;18591;47.080;22.214;2022-12-22T08:01:29;81.17;;;48.80;;
21802;SDS011;18591;47.080;22.214;2022-12-22T08:03:32;73.00;;;43.20;;
21802;SDS011;18591;47.080;22.214;2022-12-22T08:05:36;70.43;;;43.67;;
21802;SDS011;18591;47.080;22.214;2022-12-22T08:07:46;75.80;;;45.70;;
21802;SDS011;18591;47.080;22.214;2022-12-22T08:09:52;79.40;;;49.40;;
21802;SDS011;18591;47.080;22.214;2022-12-22T08:11:54;77.40;;;47.57;;
21802;SDS011;18591;47.080;22.214;2022-12-22T08:13:57;72.53;;;42.17;;
21802;SDS011;18591;47.080;22.214;2022-12-22T08:16:06;75.93;;;43.10;;
21802;SDS011;18591;47.080;22.214;2022-12-22T08:18:10;85.00;;;47.60;;
21802;SDS011;18591;47.080;22.214;2022-12-22T08:20:12;79.50;;;46.63;;
21802;SDS011;18591;47.080;22.214;2022-12-22T08:22:17;79.70;;;45.43;;
21802;SDS011;18591;47.080;22.214;2022-12-22T08:24:21;77.80;;;43.00;;
21802;SDS011;18591;47.080;22.214;2022-12-22T08:26:29;83.47;;;45.67;;
21802;SDS011;18591;47.080;22.214;2022-12-22T08:28:37;89.43;;;47.67;;
21802;SDS011;18591;47.080;22.214;2022-12-22T08:30:46;76.70;;;44.83;;
21802;SDS011;18591;47.080;22.214;2022-12-22T08:32:49;83.20;;;44.73;;
21802;SDS011;18591;47.080;22.214;2022-12-22T08:34:52;77.40;;;42.33;;
21802;SDS011;18591;47.080;22.214;2022-12-22T08:36:55;76.13;;;43.20;;
21802;SDS011;18591;47.080;22.214;2022-12-22T08:39:00;80.70;;;42.90;;
21802;SDS011;18591;47.080;22.214;2022-12-22T08:41:02;74.10;;;40.83;;
21802;SDS011;18591;47.080;22.214;2022-12-22T08:43:06;76.77;;;41.13;;
21802;SDS011;18591;47.080;22.214;2022-12-22T08:45:10;81.27;;;43.37;;
21802;SDS011;18591;47.080;22.214;2022-12-22T08:47:12;83.50;;;46.13;;
21802;SDS011;18591;47.080;22.214;2022-12-22T08:49:18;76.33;;;41.20;;
21802;SDS011;18591;47.080;22.214;2022-12-22T08:51:20;77.73;;;43.10;;
21802;SDS011;18591;47.080;22.214;2022-12-22T08:53:22;71.07;;;40.63;;
21802;SDS011;18591;47.080;22.214;2022-12-22T08:55:54;77.80;;;41.80;;
21802;SDS011;18591;47.080;22.214;2022-12-22T08:57:57;87.03;;;46.30;;
21802;SDS011;18591;47.080;22.214;2022-12-22T09:00:02;87.33;;;47.63;;
21802;SDS011;18591;47.080;22.214;2022-12-22T09:02:07;85.37;;;46.07;;
21802;SDS011;18591;47.080;22.214;2022-12-22T09:04:13;81.90;;;44.17;;
21802;SDS011;18591;47.080;22.214;2022-12-22T09:06:20;82.00;;;44.90;;
21802;SDS011;18591;47.080;22.214;2022-12-22T09:08:28;80.17;;;45.67;;
21802;SDS011;18591;47.080;22.214;2022-12-22T09:10:30;78.03;;;42.57;;
21802;SDS011;18591;47.080;22.214;2022-12-22T09:12:33;76.33;;;44.07;;
21802;SDS011;18591;47.080;22.214;2022-12-22T09:14:35;76.63;;;41.57;;
21802;SDS011;18591;47.080;22.214;2022-12-22T09:16:38;71.30;;;42.37;;
21802;SDS011;18591;47.080;22.214;2022-12-22T09:18:41;73.77;;;39.67;;
21802;SDS011;18591;47.080;22.214;2022-12-22T09:20:43;70.30;;;39.93;;
21802;SDS011;18591;47.080;22.214;2022-12-22T09:22:46;71.90;;;39.50;;
21802;SDS011;18591;47.080;22.214;2022-12-22T09:24:48;71.50;;;39.93;;
21802;SDS011;18591;47.080;22.214;2022-12-22T09:26:50;75.33;;;42.57;;
21802;SDS011;18591;47.080;22.214;2022-12-22T09:28:53;71.57;;;40.93;;
21802;SDS011;18591;47.080;22.214;2022-12-22T09:30:55;70.60;;;39.53;;
21802;SDS011;18591;47.080;22.214;2022-12-22T09:32:58;68.70;;;39.53;;
21802;SDS011;18591;47.080;22.214;2022-12-22T09:35:00;61.97;;;38.43;;
21802;SDS011;18591;47.080;22.214;2022-12-22T09:37:02;65.70;;;36.87;;
21802;SDS011;18591;47.080;22.214;2022-12-22T09:39:07;61.90;;;37.47;;
21802;SDS011;18591;47.080;22.214;2022-12-22T09:43:35;61.47;;;35.33;;
21802;SDS011;18591;47.080;22.214;2022-12-22T09:45:38;60.80;;;35.23;;
21802;SDS011;18591;47.080;22.214;2022-12-22T09:47:41;60.80;;;38.77;;
21802;SDS011;18591;47.080;22.214;2022-12-22T09:49:43;59.97;;;36.07;;
21802;SDS011;18591;47.080;22.214;2022-12-22T09:51:47;61.40;;;35.93;;
21802;SDS011;18591;47.080;22.214;2022-12-22T09:53:58;60.33;;;35.77;;
21802;SDS011;18591;47.080;22.214;2022-12-22T09:56:01;64.87;;;35.57;;
21802;SDS011;18591;47.080;22.214;2022-12-22T09:58:08;69.00;;;37.10;;
21802;SDS011;18591;47.080;22.214;2022-12-22T10:00:24;60.40;;;37.30;;
21802;SDS011;18591;47.080;22.214;2022-12-22T10:02:32;64.43;;;37.03;;
21802;SDS011;18591;47.080;22.214;2022-12-22T10:05:04;65.70;;;37.20;;
21802;SDS011;18591;47.080;22.214;2022-12-22T10:07:23;66.83;;;35.90;;
21802;SDS011;18591;47.080;22.214;2022-12-22T10:09:30;69.30;;;35.63;;
21802;SDS011;18591;47.080;22.214;2022-12-22T10:11:52;65.80;;;35.83;;
21802;SDS011;18591;47.080;22.214;2022-12-22T10:13:57;68.90;;;36.60;;
21802;SDS011;18591;47.080;22.214;2022-12-22T10:15:59;60.77;;;37.43;;
21802;SDS011;18591;47.080;22.214;2022-12-22T10:18:09;62.23;;;35.77;;
21802;SDS011;18591;47.080;22.214;2022-12-22T10:22:29;58.90;;;34.50;;
21802;SDS011;18591;47.080;22.214;2022-12-22T10:24:34;60.60;;;36.13;;
21802;SDS011;18591;47.080;22.214;2022-12-22T10:26:36;61.93;;;35.80;;
21802;SDS011;18591;47.080;22.214;2022-12-22T10:28:41;56.30;;;32.70;;
21802;SDS011;18591;47.080;22.214;2022-12-22T10:30:53;56.97;;;33.40;;
21802;SDS011;18591;47.080;22.214;2022-12-22T10:33:13;56.97;;;34.17;;
21802;SDS011;18591;47.080;22.214;2022-12-22T10:35:19;57.33;;;34.30;;
21802;SDS011;18591;47.080;22.214;2022-12-22T10:37:27;64.90;;;37.23;;
21802;SDS011;18591;47.080;22.214;2022-12-22T10:39:33;61.53;;;35.23;;
21802;SDS011;18591;47.080;22.214;2022-12-22T10:41:41;59.73;;;33.97;;
21802;SDS011;18591;47.080;22.214;2022-12-22T10:43:47;65.43;;;35.43;;
21802;SDS011;18591;47.080;22.214;2022-12-22T10:45:52;63.20;;;36.43;;
21802;SDS011;18591;47.080;22.214;2022-12-22T10:47:56;64.27;;;33.50;;
21802;SDS011;18591;47.080;22.214;2022-12-22T10:49:59;59.23;;;34.13;;
21802;SDS011;18591;47.080;22.214;2022-12-22T10:52:10;62.13;;;36.00;;
21802;SDS011;18591;47.080;22.214;2022-12-22T10:54:32;60.80;;;35.10;;
21802;SDS011;18591;47.080;22.214;2022-12-22T10:56:38;55.10;;;33.93;;
21802;SDS011;18591;47.080;22.214;2022-12-22T10:58:48;55.17;;;33.47;;
21802;SDS011;18591;47.080;22.214;2022-12-22T11:01:02;55.10;;;33.30;;
21802;SDS011;18591;47.080;22.214;2022-12-22T11:03:08;56.90;;;32.97;;
21802;SDS011;18591;47.080;22.214;2022-12-22T11:05:12;53.77;;;32.27;;
21802;SDS011;18591;47.080;22.214;2022-12-22T11:07:14;55.67;;;30.87;;
21802;SDS011;18591;47.080;22.214;2022-12-22T11:09:17;50.07;;;31.43;;
21802;SDS011;18591;47.080;22.214;2022-12-22T11:16:07;46.40;;;29.93;;
21802;SDS011;18591;47.080;22.214;2022-12-22T11:24:57;104.13;;;68.17;;
21802;SDS011;18591;47.080;22.214;2022-12-22T11:29:57;67.73;;;44.17;;
21802;SDS011;18591;47.080;22.214;2022-12-22T11:39:12;64.73;;;38.77;;
21802;SDS011;18591;47.080;22.214;2022-12-22T11:48:26;66.67;;;38.27;;
21802;SDS011;18591;47.080;22.214;2022-12-22T11:50:35;68.87;;;40.00;;
21802;SDS011;18591;47.080;22.214;2022-12-22T12:00:57;63.20;;;36.80;;
21802;SDS011;18591;47.080;22.214;2022-12-22T12:07:38;66.00;;;37.40;;
21802;SDS011;18591;47.080;22.214;2022-12-22T12:18:10;76.60;;;43.33;;
21802;SDS011;18591;47.080;22.214;2022-12-22T12:25:31;79.23;;;43.70;;
21802;SDS011;18591;47.080;22.214;2022-12-22T12:28:01;81.33;;;45.07;;
21802;SDS011;18591;47.080;22.214;2022-12-22T12:30:16;76.33;;;43.57;;
21802;SDS011;18591;47.080;22.214;2022-12-22T12:35:25;82.37;;;43.90;;
21802;SDS011;18591;47.080;22.214;2022-12-22T12:37:36;80.33;;;43.70;;
21802;SDS011;18591;47.080;22.214;2022-12-22T12:42:27;88.33;;;51.10;;
21802;SDS011;18591;47.080;22.214;2022-12-22T12:44:30;89.07;;;47.57;;
21802;SDS011;18591;47.080;22.214;2022-12-22T12:48:54;77.43;;;42.90;;
21802;SDS011;18591;47.080;22.214;2022-12-22T12:50:57;85.80;;;46.83;;
21802;SDS011;18591;47.080;22.214;2022-12-22T12:53:07;92.13;;;51.97;;
21802;SDS011;18591;47.080;22.214;2022-12-22T12:55:30;96.90;;;52.33;;
21802;SDS011;18591;47.080;22.214;2022-12-22T12:57:45;122.30;;;69.90;;
21802;SDS011;18591;47.080;22.214;2022-12-22T12:59:53;117.67;;;67.67;;
21802;SDS011;18591;47.080;22.214;2022-12-22T13:01:58;108.03;;;64.87;;
21802;SDS011;18591;47.080;22.214;2022-12-22T13:04:01;109.80;;;65.03;;
21802;SDS011;18591;47.080;22.214;2022-12-22T13:06:06;108.20;;;64.20;;
21802;SDS011;18591;47.080;22.214;2022-12-22T13:10:24;130.87;;;74.07;;
21802;SDS011;18591;47.080;22.214;2022-12-22T13:12:47;117.93;;;69.30;;
21802;SDS011;18591;47.080;22.214;2022-12-22T13:14:56;105.67;;;59.97;;
21802;SDS011;18591;47.080;22.214;2022-12-22T13:17:30;104.33;;;58.97;;
21802;SDS011;18591;47.080;22.214;2022-12-22T13:19:56;93.67;;;55.20;;
21802;SDS011;18591;47.080;22.214;2022-12-22T13:22:05;82.57;;;47.53;;
21802;SDS011;18591;47.080;22.214;2022-12-22T13:24:25;87.10;;;48.23;;
21802;SDS011;18591;47.080;22.214;2022-12-22T13:28:35;90.13;;;51.00;;
21802;SDS011;18591;47.080;22.214;2022-12-22T13:30:44;83.33;;;50.00;;
21802;SDS011;18591;47.080;22.214;2022-12-22T13:32:50;85.70;;;49.20;;
21802;SDS011;18591;47.080;22.214;2022-12-22T13:37:39;109.93;;;63.83;;
21802;SDS011;18591;47.080;22.214;2022-12-22T13:42:14;123.33;;;76.73;;
21802;SDS011;18591;47.080;22.214;2022-12-22T13:44:18;120.73;;;71.40;;
21802;SDS011;18591;47.080;22.214;2022-12-22T13:46:28;109.77;;;63.00;;
21802;SDS011;18591;47.080;22.214;2022-12-22T13:48:37;91.93;;;57.67;;
21802;SDS011;18591;47.080;22.214;2022-12-22T13:50:47;82.57;;;51.70;;
21802;SDS011;18591;47.080;22.214;2022-12-22T13:52:54;78.47;;;46.50;;
21802;SDS011;18591;47.080;22.214;2022-12-22T13:54:58;76.73;;;44.40;;
21802;SDS011;18591;47.080;22.214;2022-12-22T13:57:02;72.60;;;43.63;;
21802;SDS011;18591;47.080;22.214;2022-12-22T13:59:15;71.37;;;40.73;;
21802;SDS011;18591;47.080;22.214;2022-12-22T14:01:47;69.27;;;39.83;;
21802;SDS011;18591;47.080;22.214;2022-12-22T14:03:58;69.67;;;40.67;;